sensor_id;sensor_type;location;lat;lon;timestamp;temperature;humidity
67890;DHT22;54685;52.082;5.426;2022-08-21T00:01:49;16.30;99.90
67890;DHT22;54685;52.082;5.426;2022-08-21T00:04:16;16.20;99.90
67890;DHT22;54685;52.082;5.426;2022-08-21T00:06:52;16.10;99.90
67890;DHT22;54685;52.082;5.426;2022-08-21T00:09:19;16.10;99.90
67890;DHT22;54685;52.082;5.426;2022-08-21T00:11:47;16.00;99.90
67890;DHT22;54685;52.082;5.426;2022-08-21T00:14:15;16.00;99.90
67890;DHT22;54685;52.082;5.426;2022-08-21T00:16:42;16.00;99.90
67890;DHT22;54685;52.082;5.426;2022-08-21T00:19:09;15.90;99.90
67890;DHT22;54685;52.082;5.426;2022-08-21T00:21:36;15.90;99.90
67890;DHT22;54685;52.082;5.426;2022-08-21T00:24:03;15.90;99.90
67890;DHT22;54685;52.082;5.426;2022-08-21T00:26:29;15.90;99.90
67890;DHT22;54685;52.082;5.426;2022-08-21T00:28:56;16.10;99.90
67890;DHT22;54685;52.082;5.426;2022-08-21T00:31:24;16.10;99.90
67890;DHT22;54685;52.082;5.426;2022-08-21T00:33:51;16.00;99.90
67890;DHT22;54685;52.082;5.426;2022-08-21T00:36:24;16.00;99.90
67890;DHT22;54685;52.082;5.426;2022-08-21T00:38:51;15.90;99.90
67890;DHT22;54685;52.082;5.426;2022-08-21T00:41:18;15.80;99.90
67890;DHT22;54685;52.082;5.426;2022-08-21T00:44:07;15.80;99.90
67890;DHT22;54685;52.082;5.426;2022-08-21T00:46:34;15.80;99.90
67890;DHT22;54685;52.082;5.426;2022-08-21T00:49:01;15.80;99.90
67890;DHT22;54685;52.082;5.426;2022-08-21T00:51:46;15.70;99.90
67890;DHT22;54685;52.082;5.426;2022-08-21T00:54:15;15.80;99.90
67890;DHT22;54685;52.082;5.426;2022-08-21T00:56:46;15.80;99.90
67890;DHT22;54685;52.082;5.426;2022-08-21T00:59:18;15.80;99.90
67890;DHT22;54685;52.082;5.426;2022-08-21T01:01:45;15.70;99.90
67890;DHT22;54685;52.082;5.426;2022-08-21T01:04:12;15.60;99.90
67890;DHT22;54685;52.082;5.426;2022-08-21T01:06:39;15.60;99.90
67890;DHT22;54685;52.082;5.426;2022-08-21T01:09:06;15.60;99.90
67890;DHT22;54685;52.082;5.426;2022-08-21T01:11:32;15.80;99.90
67890;DHT22;54685;52.082;5.426;2022-08-21T01:13:59;15.80;99.90
67890;DHT22;54685;52.082;5.426;2022-08-21T01:16:29;15.80;99.90
67890;DHT22;54685;52.082;5.426;2022-08-21T01:18:56;15.90;99.90
67890;DHT22;54685;52.082;5.426;2022-08-21T01:21:25;15.80;99.90
67890;DHT22;54685;52.082;5.426;2022-08-21T01:23:55;15.80;99.90
67890;DHT22;54685;52.082;5.426;2022-08-21T01:26:26;15.80;99.90
67890;DHT22;54685;52.082;5.426;2022-08-21T01:29:12;15.90;99.90
67890;DHT22;54685;52.082;5.426;2022-08-21T01:31:40;15.90;99.90
67890;DHT22;54685;52.082;5.426;2022-08-21T01:34:10;15.90;99.90
67890;DHT22;54685;52.082;5.426;2022-08-21T01:36:36;15.90;99.90
67890;DHT22;54685;52.082;5.426;2022-08-21T01:39:05;15.80;99.90
67890;DHT22;54685;52.082;5.426;2022-08-21T01:41:32;15.70;99.90
67890;DHT22;54685;52.082;5.426;2022-08-21T01:43:58;15.80;99.90
67890;DHT22;54685;52.082;5.426;2022-08-21T01:46:25;15.80;99.90
67890;DHT22;54685;52.082;5.426;2022-08-21T01:48:52;15.80;99.90
67890;DHT22;54685;52.082;5.426;2022-08-21T01:51:19;15.80;99.90
67890;DHT22;54685;52.082;5.426;2022-08-21T01:53:46;15.80;99.90
67890;DHT22;54685;52.082;5.426;2022-08-21T01:56:14;15.70;99.90
67890;DHT22;54685;52.082;5.426;2022-08-21T01:58:43;15.60;99.90
67890;DHT22;54685;52.082;5.426;2022-08-21T02:01:11;15.50;99.90
67890;DHT22;54685;52.082;5.426;2022-08-21T02:03:40;15.40;99.90
67890;DHT22;54685;52.082;5.426;2022-08-21T02:06:13;15.40;99.90
67890;DHT22;54685;52.082;5.426;2022-08-21T02:08:42;15.30;99.90
67890;DHT22;54685;52.082;5.426;2022-08-21T02:11:09;15.30;99.90
67890;DHT22;54685;52.082;5.426;2022-08-21T02:13:35;15.40;99.90
67890;DHT22;54685;52.082;5.426;2022-08-21T02:16:02;15.40;99.90
67890;DHT22;54685;52.082;5.426;2022-08-21T02:18:29;15.40;99.90
67890;DHT22;54685;52.082;5.426;2022-08-21T02:20:57;15.40;99.90
67890;DHT22;54685;52.082;5.426;2022-08-21T02:23:24;15.40;99.90
67890;DHT22;54685;52.082;5.426;2022-08-21T02:25:57;15.40;99.90
67890;DHT22;54685;52.082;5.426;2022-08-21T02:28:24;15.40;99.90
67890;DHT22;54685;52.082;5.426;2022-08-21T02:30:54;15.50;99.90
67890;DHT22;54685;52.082;5.426;2022-08-21T02:33:24;15.50;99.90
67890;DHT22;54685;52.082;5.426;2022-08-21T02:35:52;15.60;99.90
67890;DHT22;54685;52.082;5.426;2022-08-21T02:38:23;15.60;99.90
67890;DHT22;54685;52.082;5.426;2022-08-21T02:40:51;15.50;99.90
67890;DHT22;54685;52.082;5.426;2022-08-21T02:43:20;15.50;99.90
67890;DHT22;54685;52.082;5.426;2022-08-21T02:45:48;15.50;99.90
67890;DHT22;54685;52.082;5.426;2022-08-21T02:48:18;15.40;99.90
67890;DHT22;54685;52.082;5.426;2022-08-21T02:50:52;15.30;99.90
67890;DHT22;54685;52.082;5.426;2022-08-21T02:53:19;15.20;99.90
67890;DHT22;54685;52.082;5.426;2022-08-21T02:55:48;15.10;99.90
67890;DHT22;54685;52.082;5.426;2022-08-21T02:58:18;15.10;99.90
67890;DHT22;54685;52.082;5.426;2022-08-21T03:00:45;15.10;99.90
67890;DHT22;54685;52.082;5.426;2022-08-21T03:03:13;15.10;99.90
67890;DHT22;54685;52.082;5.426;2022-08-21T03:05:42;15.10;99.90
67890;DHT22;54685;52.082;5.426;2022-08-21T03:08:11;15.20;99.90
67890;DHT22;54685;52.082;5.426;2022-08-21T03:10:41;15.20;99.90
67890;DHT22;54685;52.082;5.426;2022-08-21T03:13:09;15.20;99.90
67890;DHT22;54685;52.082;5.426;2022-08-21T03:15:36;15.10;99.90
67890;DHT22;54685;52.082;5.426;2022-08-21T03:18:04;15.20;99.90
67890;DHT22;54685;52.082;5.426;2022-08-21T03:20:32;15.20;99.90
67890;DHT22;54685;52.082;5.426;2022-08-21T03:23:00;15.20;99.90
67890;DHT22;54685;52.082;5.426;2022-08-21T03:25:28;15.20;99.90
67890;DHT22;54685;52.082;5.426;2022-08-21T03:28:09;15.20;99.90
67890;DHT22;54685;52.082;5.426;2022-08-21T03:30:43;15.20;99.90
67890;DHT22;54685;52.082;5.426;2022-08-21T03:33:11;15.30;99.90
67890;DHT22;54685;52.082;5.426;2022-08-21T03:35:43;15.30;99.90
67890;DHT22;54685;52.082;5.426;2022-08-21T03:38:10;15.40;99.90
67890;DHT22;54685;52.082;5.426;2022-08-21T03:40:39;15.40;99.90
67890;DHT22;54685;52.082;5.426;2022-08-21T03:43:06;15.40;99.90
67890;DHT22;54685;52.082;5.426;2022-08-21T03:45:37;15.50;99.90
67890;DHT22;54685;52.082;5.426;2022-08-21T03:48:06;15.50;99.90
67890;DHT22;54685;52.082;5.426;2022-08-21T03:50:35;15.40;99.90
67890;DHT22;54685;52.082;5.426;2022-08-21T03:53:08;15.40;99.90
67890;DHT22;54685;52.082;5.426;2022-08-21T03:55:49;15.30;99.90
67890;DHT22;54685;52.082;5.426;2022-08-21T03:58:18;15.30;99.90
67890;DHT22;54685;52.082;5.426;2022-08-21T04:00:46;15.20;99.90
67890;DHT22;54685;52.082;5.426;2022-08-21T04:03:16;15.20;99.90
67890;DHT22;54685;52.082;5.426;2022-08-21T04:05:44;15.20;99.90
67890;DHT22;54685;52.082;5.426;2022-08-21T04:08:13;15.20;99.90
67890;DHT22;54685;52.082;5.426;2022-08-21T04:10:40;15.20;99.90
67890;DHT22;54685;52.082;5.426;2022-08-21T04:13:07;15.20;99.90
67890;DHT22;54685;52.082;5.426;2022-08-21T04:15:34;15.10;99.90
67890;DHT22;54685;52.082;5.426;2022-08-21T04:18:02;15.10;99.90
67890;DHT22;54685;52.082;5.426;2022-08-21T04:20:32;15.10;99.90
67890;DHT22;54685;52.082;5.426;2022-08-21T04:22:59;15.00;99.90
67890;DHT22;54685;52.082;5.426;2022-08-21T04:25:26;14.90;99.90
67890;DHT22;54685;52.082;5.426;2022-08-21T04:27:53;14.90;99.90
67890;DHT22;54685;52.082;5.426;2022-08-21T04:30:21;14.90;99.90
67890;DHT22;54685;52.082;5.426;2022-08-21T04:32:55;14.90;99.90
67890;DHT22;54685;52.082;5.426;2022-08-21T04:35:24;14.70;99.90
67890;DHT22;54685;52.082;5.426;2022-08-21T04:37:52;14.70;99.90
67890;DHT22;54685;52.082;5.426;2022-08-21T04:40:20;14.60;99.90
67890;DHT22;54685;52.082;5.426;2022-08-21T04:42:49;14.60;99.90
67890;DHT22;54685;52.082;5.426;2022-08-21T04:45:20;14.60;99.90
67890;DHT22;54685;52.082;5.426;2022-08-21T04:47:53;14.60;99.90
67890;DHT22;54685;52.082;5.426;2022-08-21T04:50:23;14.60;99.90
67890;DHT22;54685;52.082;5.426;2022-08-21T04:53:04;14.70;99.90
67890;DHT22;54685;52.082;5.426;2022-08-21T04:55:34;14.80;99.90
67890;DHT22;54685;52.082;5.426;2022-08-21T04:58:01;14.80;99.90
67890;DHT22;54685;52.082;5.426;2022-08-21T05:00:28;14.80;99.90
67890;DHT22;54685;52.082;5.426;2022-08-21T05:02:56;14.90;99.90
67890;DHT22;54685;52.082;5.426;2022-08-21T05:05:28;14.90;99.90
67890;DHT22;54685;52.082;5.426;2022-08-21T05:07:57;14.90;99.90
67890;DHT22;54685;52.082;5.426;2022-08-21T05:10:24;14.90;99.90
67890;DHT22;54685;52.082;5.426;2022-08-21T05:12:51;14.90;99.90
67890;DHT22;54685;52.082;5.426;2022-08-21T05:15:17;14.90;99.90
67890;DHT22;54685;52.082;5.426;2022-08-21T05:17:44;14.90;99.90
67890;DHT22;54685;52.082;5.426;2022-08-21T05:20:27;14.80;99.90
67890;DHT22;54685;52.082;5.426;2022-08-21T05:22:55;14.80;99.90
67890;DHT22;54685;52.082;5.426;2022-08-21T05:25:22;14.80;99.90
67890;DHT22;54685;52.082;5.426;2022-08-21T05:27:50;14.80;99.90
67890;DHT22;54685;52.082;5.426;2022-08-21T05:30:19;14.90;99.90
67890;DHT22;54685;52.082;5.426;2022-08-21T05:32:46;14.90;99.90
67890;DHT22;54685;52.082;5.426;2022-08-21T05:35:14;15.00;99.90
67890;DHT22;54685;52.082;5.426;2022-08-21T05:37:41;15.10;99.90
67890;DHT22;54685;52.082;5.426;2022-08-21T05:40:08;15.10;99.90
67890;DHT22;54685;52.082;5.426;2022-08-21T05:42:51;15.10;99.90
67890;DHT22;54685;52.082;5.426;2022-08-21T05:45:26;15.20;99.90
67890;DHT22;54685;52.082;5.426;2022-08-21T05:48:21;15.20;99.90
67890;DHT22;54685;52.082;5.426;2022-08-21T05:50:50;15.30;99.90
67890;DHT22;54685;52.082;5.426;2022-08-21T05:53:19;15.40;99.90
67890;DHT22;54685;52.082;5.426;2022-08-21T05:55:47;15.50;99.90
67890;DHT22;54685;52.082;5.426;2022-08-21T05:58:16;15.50;99.90
67890;DHT22;54685;52.082;5.426;2022-08-21T06:00:44;15.60;99.90
67890;DHT22;54685;52.082;5.426;2022-08-21T06:03:15;15.60;99.90
67890;DHT22;54685;52.082;5.426;2022-08-21T06:05:43;15.70;99.90
67890;DHT22;54685;52.082;5.426;2022-08-21T06:08:10;15.80;99.90
67890;DHT22;54685;52.082;5.426;2022-08-21T06:10:37;15.80;99.90
67890;DHT22;54685;52.082;5.426;2022-08-21T06:13:04;15.90;99.90
67890;DHT22;54685;52.082;5.426;2022-08-21T06:15:31;15.90;99.90
67890;DHT22;54685;52.082;5.426;2022-08-21T06:17:58;15.90;99.90
67890;DHT22;54685;52.082;5.426;2022-08-21T06:20:25;16.00;99.90
67890;DHT22;54685;52.082;5.426;2022-08-21T06:22:52;16.00;99.90
67890;DHT22;54685;52.082;5.426;2022-08-21T06:25:18;16.10;99.90
67890;DHT22;54685;52.082;5.426;2022-08-21T06:27:46;16.20;99.90
67890;DHT22;54685;52.082;5.426;2022-08-21T06:30:14;16.20;99.90
67890;DHT22;54685;52.082;5.426;2022-08-21T06:32:40;16.20;99.90
67890;DHT22;54685;52.082;5.426;2022-08-21T06:35:07;16.30;99.90
67890;DHT22;54685;52.082;5.426;2022-08-21T06:37:34;16.30;99.90
67890;DHT22;54685;52.082;5.426;2022-08-21T06:40:05;16.50;99.90
67890;DHT22;54685;52.082;5.426;2022-08-21T06:42:39;16.40;99.90
67890;DHT22;54685;52.082;5.426;2022-08-21T06:45:10;16.50;99.90
67890;DHT22;54685;52.082;5.426;2022-08-21T06:47:37;16.50;99.90
67890;DHT22;54685;52.082;5.426;2022-08-21T06:50:04;16.60;99.90
67890;DHT22;54685;52.082;5.426;2022-08-21T06:52:31;16.70;99.90
67890;DHT22;54685;52.082;5.426;2022-08-21T06:54:58;16.70;99.90
67890;DHT22;54685;52.082;5.426;2022-08-21T06:57:25;16.70;99.90
67890;DHT22;54685;52.082;5.426;2022-08-21T06:59:52;16.70;99.90
67890;DHT22;54685;52.082;5.426;2022-08-21T07:02:18;16.80;99.90
67890;DHT22;54685;52.082;5.426;2022-08-21T07:04:45;16.90;99.90
67890;DHT22;54685;52.082;5.426;2022-08-21T07:07:12;16.90;99.90
67890;DHT22;54685;52.082;5.426;2022-08-21T07:09:40;17.00;99.90
67890;DHT22;54685;52.082;5.426;2022-08-21T07:12:07;17.00;99.90
67890;DHT22;54685;52.082;5.426;2022-08-21T07:14:37;17.10;99.90
67890;DHT22;54685;52.082;5.426;2022-08-21T07:17:04;17.20;99.90
67890;DHT22;54685;52.082;5.426;2022-08-21T07:19:31;17.20;99.90
67890;DHT22;54685;52.082;5.426;2022-08-21T07:22:00;17.20;99.90
67890;DHT22;54685;52.082;5.426;2022-08-21T07:24:27;17.20;99.90
67890;DHT22;54685;52.082;5.426;2022-08-21T07:26:55;17.40;99.90
67890;DHT22;54685;52.082;5.426;2022-08-21T07:29:22;17.40;99.90
67890;DHT22;54685;52.082;5.426;2022-08-21T07:31:48;17.50;99.90
67890;DHT22;54685;52.082;5.426;2022-08-21T07:34:16;17.60;99.90
67890;DHT22;54685;52.082;5.426;2022-08-21T07:36:43;17.80;99.90
67890;DHT22;54685;52.082;5.426;2022-08-21T07:39:10;17.80;99.90
67890;DHT22;54685;52.082;5.426;2022-08-21T07:41:36;17.80;99.90
67890;DHT22;54685;52.082;5.426;2022-08-21T07:44:04;17.80;99.90
67890;DHT22;54685;52.082;5.426;2022-08-21T07:46:32;17.80;99.90
67890;DHT22;54685;52.082;5.426;2022-08-21T07:48:59;18.00;99.90
67890;DHT22;54685;52.082;5.426;2022-08-21T07:51:27;17.90;99.90
67890;DHT22;54685;52.082;5.426;2022-08-21T07:53:56;18.10;99.90
67890;DHT22;54685;52.082;5.426;2022-08-21T07:56:23;18.10;99.90
67890;DHT22;54685;52.082;5.426;2022-08-21T07:58:53;18.10;99.90
67890;DHT22;54685;52.082;5.426;2022-08-21T08:01:20;18.20;99.90
67890;DHT22;54685;52.082;5.426;2022-08-21T08:03:47;18.20;99.90
67890;DHT22;54685;52.082;5.426;2022-08-21T08:06:14;18.30;99.90
67890;DHT22;54685;52.082;5.426;2022-08-21T08:08:45;18.40;99.90
67890;DHT22;54685;52.082;5.426;2022-08-21T08:11:12;18.50;99.90
67890;DHT22;54685;52.082;5.426;2022-08-21T08:13:43;18.60;99.90
67890;DHT22;54685;52.082;5.426;2022-08-21T08:16:11;18.60;99.90
67890;DHT22;54685;52.082;5.426;2022-08-21T08:18:37;18.70;99.90
67890;DHT22;54685;52.082;5.426;2022-08-21T08:21:05;18.70;99.90
67890;DHT22;54685;52.082;5.426;2022-08-21T08:23:32;18.80;99.90
67890;DHT22;54685;52.082;5.426;2022-08-21T08:25:59;18.90;99.90
67890;DHT22;54685;52.082;5.426;2022-08-21T08:28:26;18.90;99.90
67890;DHT22;54685;52.082;5.426;2022-08-21T08:30:56;18.90;99.90
67890;DHT22;54685;52.082;5.426;2022-08-21T08:33:23;19.00;99.90
67890;DHT22;54685;52.082;5.426;2022-08-21T08:35:51;19.10;99.90
67890;DHT22;54685;52.082;5.426;2022-08-21T08:38:22;19.10;99.90
67890;DHT22;54685;52.082;5.426;2022-08-21T08:41:05;19.20;99.90
67890;DHT22;54685;52.082;5.426;2022-08-21T08:43:34;19.40;99.90
67890;DHT22;54685;52.082;5.426;2022-08-21T08:46:05;19.50;99.90
67890;DHT22;54685;52.082;5.426;2022-08-21T08:48:50;19.50;99.90
67890;DHT22;54685;52.082;5.426;2022-08-21T08:51:28;19.60;99.90
67890;DHT22;54685;52.082;5.426;2022-08-21T08:54:00;19.70;99.90
67890;DHT22;54685;52.082;5.426;2022-08-21T08:56:31;19.80;99.90
67890;DHT22;54685;52.082;5.426;2022-08-21T08:59:08;19.90;99.90
67890;DHT22;54685;52.082;5.426;2022-08-21T09:01:38;20.00;99.90
67890;DHT22;54685;52.082;5.426;2022-08-21T09:04:05;20.10;99.90
67890;DHT22;54685;52.082;5.426;2022-08-21T09:12:06;20.60;99.90
67890;DHT22;54685;52.082;5.426;2022-08-21T09:17:38;21.10;99.90
67890;DHT22;54685;52.082;5.426;2022-08-21T09:20:29;21.20;99.90
67890;DHT22;54685;52.082;5.426;2022-08-21T09:23:07;21.30;99.90
67890;DHT22;54685;52.082;5.426;2022-08-21T09:25:50;21.50;99.90
67890;DHT22;54685;52.082;5.426;2022-08-21T09:28:21;21.90;99.90
67890;DHT22;54685;52.082;5.426;2022-08-21T09:30:49;22.50;99.90
67890;DHT22;54685;52.082;5.426;2022-08-21T09:33:16;22.70;99.90
67890;DHT22;54685;52.082;5.426;2022-08-21T09:35:54;22.90;99.90
67890;DHT22;54685;52.082;5.426;2022-08-21T09:38:35;22.70;99.90
67890;DHT22;54685;52.082;5.426;2022-08-21T09:41:07;22.70;99.90
67890;DHT22;54685;52.082;5.426;2022-08-21T09:43:35;22.80;99.90
67890;DHT22;54685;52.082;5.426;2022-08-21T09:46:11;23.10;99.90
67890;DHT22;54685;52.082;5.426;2022-08-21T09:48:45;23.50;99.90
67890;DHT22;54685;52.082;5.426;2022-08-21T09:51:16;23.50;99.90
67890;DHT22;54685;52.082;5.426;2022-08-21T09:53:51;23.30;99.90
67890;DHT22;54685;52.082;5.426;2022-08-21T09:56:39;23.10;99.90
67890;DHT22;54685;52.082;5.426;2022-08-21T09:59:28;22.90;99.90
67890;DHT22;54685;52.082;5.426;2022-08-21T10:02:24;23.20;99.90
67890;DHT22;54685;52.082;5.426;2022-08-21T10:04:55;23.40;99.90
67890;DHT22;54685;52.082;5.426;2022-08-21T10:07:26;23.80;99.90
67890;DHT22;54685;52.082;5.426;2022-08-21T10:15:31;24.80;99.20
67890;DHT22;54685;52.082;5.426;2022-08-21T10:18:26;25.20;96.80
67890;DHT22;54685;52.082;5.426;2022-08-21T10:21:10;25.70;90.80
67890;DHT22;54685;52.082;5.426;2022-08-21T10:24:12;25.90;86.90
67890;DHT22;54685;52.082;5.426;2022-08-21T10:27:15;26.20;88.50
67890;DHT22;54685;52.082;5.426;2022-08-21T10:29:51;26.20;83.10
67890;DHT22;54685;52.082;5.426;2022-08-21T10:33:01;26.30;79.80
67890;DHT22;54685;52.082;5.426;2022-08-21T10:35:35;26.50;77.50
67890;DHT22;54685;52.082;5.426;2022-08-21T10:41:35;26.80;71.10
67890;DHT22;54685;52.082;5.426;2022-08-21T10:44:27;26.50;67.50
67890;DHT22;54685;52.082;5.426;2022-08-21T10:49:39;26.00;67.80
67890;DHT22;54685;52.082;5.426;2022-08-21T10:55:11;26.30;72.90
67890;DHT22;54685;52.082;5.426;2022-08-21T10:57:46;26.60;68.90
67890;DHT22;54685;52.082;5.426;2022-08-21T11:00:29;26.80;70.90
67890;DHT22;54685;52.082;5.426;2022-08-21T11:03:12;27.10;68.60
67890;DHT22;54685;52.082;5.426;2022-08-21T11:08:51;26.90;63.00
67890;DHT22;54685;52.082;5.426;2022-08-21T11:11:39;27.10;64.80
67890;DHT22;54685;52.082;5.426;2022-08-21T11:14:54;27.10;60.60
67890;DHT22;54685;52.082;5.426;2022-08-21T11:17:31;26.80;60.90
67890;DHT22;54685;52.082;5.426;2022-08-21T11:20:09;26.80;60.00
67890;DHT22;54685;52.082;5.426;2022-08-21T11:22:52;26.90;60.30
67890;DHT22;54685;52.082;5.426;2022-08-21T11:25:32;27.10;61.30
67890;DHT22;54685;52.082;5.426;2022-08-21T11:34:10;27.10;55.30
67890;DHT22;54685;52.082;5.426;2022-08-21T11:44:49;26.90;57.90
67890;DHT22;54685;52.082;5.426;2022-08-21T11:47:33;27.00;60.20
67890;DHT22;54685;52.082;5.426;2022-08-21T11:50:37;27.10;58.20
67890;DHT22;54685;52.082;5.426;2022-08-21T11:55:52;27.00;59.00
67890;DHT22;54685;52.082;5.426;2022-08-21T11:58:51;26.80;60.00
67890;DHT22;54685;52.082;5.426;2022-08-21T12:01:27;27.00;64.30
67890;DHT22;54685;52.082;5.426;2022-08-21T12:04:10;27.10;59.60
67890;DHT22;54685;52.082;5.426;2022-08-21T12:06:47;27.20;56.90
67890;DHT22;54685;52.082;5.426;2022-08-21T12:12:04;26.90;57.80
67890;DHT22;54685;52.082;5.426;2022-08-21T12:14:45;26.70;57.60
67890;DHT22;54685;52.082;5.426;2022-08-21T12:17:21;26.60;61.00
67890;DHT22;54685;52.082;5.426;2022-08-21T12:20:14;26.60;60.70
67890;DHT22;54685;52.082;5.426;2022-08-21T12:22:51;26.30;59.00
67890;DHT22;54685;52.082;5.426;2022-08-21T12:25:21;26.30;61.40
67890;DHT22;54685;52.082;5.426;2022-08-21T12:27:53;26.30;63.10
67890;DHT22;54685;52.082;5.426;2022-08-21T12:33:02;25.80;63.40
67890;DHT22;54685;52.082;5.426;2022-08-21T12:35:40;25.60;64.00
67890;DHT22;54685;52.082;5.426;2022-08-21T12:38:20;25.40;63.70
67890;DHT22;54685;52.082;5.426;2022-08-21T12:41:09;25.10;66.70
67890;DHT22;54685;52.082;5.426;2022-08-21T12:44:32;25.00;68.00
67890;DHT22;54685;52.082;5.426;2022-08-21T12:49:37;25.00;68.30
67890;DHT22;54685;52.082;5.426;2022-08-21T12:52:30;24.90;70.90
67890;DHT22;54685;52.082;5.426;2022-08-21T12:55:05;24.60;73.00
67890;DHT22;54685;52.082;5.426;2022-08-21T12:57:36;24.70;73.30
67890;DHT22;54685;52.082;5.426;2022-08-21T13:00:07;25.00;77.50
67890;DHT22;54685;52.082;5.426;2022-08-21T13:02:43;25.20;71.70
67890;DHT22;54685;52.082;5.426;2022-08-21T13:05:14;25.50;71.90
67890;DHT22;54685;52.082;5.426;2022-08-21T13:07:47;25.70;68.60
67890;DHT22;54685;52.082;5.426;2022-08-21T13:10:21;25.80;66.40
67890;DHT22;54685;52.082;5.426;2022-08-21T13:12:49;25.90;69.00
67890;DHT22;54685;52.082;5.426;2022-08-21T13:15:28;26.00;64.50
67890;DHT22;54685;52.082;5.426;2022-08-21T13:18:00;25.80;63.80
67890;DHT22;54685;52.082;5.426;2022-08-21T13:20:36;25.80;61.90
67890;DHT22;54685;52.082;5.426;2022-08-21T13:23:24;25.80;59.80
67890;DHT22;54685;52.082;5.426;2022-08-21T13:25:52;25.80;62.50
67890;DHT22;54685;52.082;5.426;2022-08-21T13:28:21;25.80;59.20
67890;DHT22;54685;52.082;5.426;2022-08-21T13:30:51;25.90;60.10
67890;DHT22;54685;52.082;5.426;2022-08-21T13:33:24;25.90;58.40
67890;DHT22;54685;52.082;5.426;2022-08-21T13:36:25;26.00;58.20
67890;DHT22;54685;52.082;5.426;2022-08-21T13:38:53;26.00;56.40
67890;DHT22;54685;52.082;5.426;2022-08-21T13:41:27;26.00;58.00
67890;DHT22;54685;52.082;5.426;2022-08-21T13:44:03;26.10;58.40
67890;DHT22;54685;52.082;5.426;2022-08-21T13:46:35;26.10;58.80
67890;DHT22;54685;52.082;5.426;2022-08-21T13:49:04;26.20;58.60
67890;DHT22;54685;52.082;5.426;2022-08-21T13:51:32;26.30;59.90
67890;DHT22;54685;52.082;5.426;2022-08-21T13:53:59;26.30;58.90
67890;DHT22;54685;52.082;5.426;2022-08-21T13:56:31;26.20;59.90
67890;DHT22;54685;52.082;5.426;2022-08-21T13:59:00;26.10;59.70
67890;DHT22;54685;52.082;5.426;2022-08-21T14:01:32;26.20;59.80
67890;DHT22;54685;52.082;5.426;2022-08-21T14:04:04;26.10;57.60
67890;DHT22;54685;52.082;5.426;2022-08-21T14:06:36;26.20;58.30
67890;DHT22;54685;52.082;5.426;2022-08-21T14:09:14;26.00;57.40
67890;DHT22;54685;52.082;5.426;2022-08-21T14:11:48;26.10;58.00
67890;DHT22;54685;52.082;5.426;2022-08-21T14:14:23;26.10;59.20
67890;DHT22;54685;52.082;5.426;2022-08-21T14:16:59;26.20;59.50
67890;DHT22;54685;52.082;5.426;2022-08-21T14:19:50;26.20;57.70
67890;DHT22;54685;52.082;5.426;2022-08-21T14:22:48;26.20;58.10
67890;DHT22;54685;52.082;5.426;2022-08-21T14:25:36;26.10;57.20
67890;DHT22;54685;52.082;5.426;2022-08-21T14:28:26;25.90;57.20
67890;DHT22;54685;52.082;5.426;2022-08-21T14:30:56;25.90;58.80
67890;DHT22;54685;52.082;5.426;2022-08-21T14:35:53;26.10;59.20
67890;DHT22;54685;52.082;5.426;2022-08-21T14:38:23;26.10;58.90
67890;DHT22;54685;52.082;5.426;2022-08-21T14:40:55;26.00;57.90
67890;DHT22;54685;52.082;5.426;2022-08-21T14:43:25;25.90;58.40
67890;DHT22;54685;52.082;5.426;2022-08-21T14:45:52;26.00;56.60
67890;DHT22;54685;52.082;5.426;2022-08-21T14:48:19;26.00;55.00
67890;DHT22;54685;52.082;5.426;2022-08-21T14:50:46;25.80;55.80
67890;DHT22;54685;52.082;5.426;2022-08-21T14:53:15;25.70;55.80
67890;DHT22;54685;52.082;5.426;2022-08-21T14:55:42;25.70;56.40
67890;DHT22;54685;52.082;5.426;2022-08-21T14:58:31;25.70;56.30
67890;DHT22;54685;52.082;5.426;2022-08-21T15:00:59;25.60;57.10
67890;DHT22;54685;52.082;5.426;2022-08-21T15:03:30;25.40;56.50
67890;DHT22;54685;52.082;5.426;2022-08-21T15:05:58;25.10;56.20
67890;DHT22;54685;52.082;5.426;2022-08-21T15:08:26;24.80;57.70
67890;DHT22;54685;52.082;5.426;2022-08-21T15:10:53;24.50;57.30
67890;DHT22;54685;52.082;5.426;2022-08-21T15:13:39;24.30;59.00
67890;DHT22;54685;52.082;5.426;2022-08-21T15:16:08;24.20;59.50
67890;DHT22;54685;52.082;5.426;2022-08-21T15:18:36;24.40;59.80
67890;DHT22;54685;52.082;5.426;2022-08-21T15:21:03;24.40;58.90
67890;DHT22;54685;52.082;5.426;2022-08-21T15:23:30;24.30;59.70
67890;DHT22;54685;52.082;5.426;2022-08-21T15:25:57;24.20;60.90
67890;DHT22;54685;52.082;5.426;2022-08-21T15:28:25;24.20;62.20
67890;DHT22;54685;52.082;5.426;2022-08-21T15:30:59;24.20;60.60
67890;DHT22;54685;52.082;5.426;2022-08-21T15:33:27;24.10;61.20
67890;DHT22;54685;52.082;5.426;2022-08-21T15:35:53;23.90;63.20
67890;DHT22;54685;52.082;5.426;2022-08-21T15:38:20;23.90;63.40
67890;DHT22;54685;52.082;5.426;2022-08-21T15:40:47;23.80;64.70
67890;DHT22;54685;52.082;5.426;2022-08-21T15:43:42;23.80;64.50
67890;DHT22;54685;52.082;5.426;2022-08-21T15:46:12;23.80;62.70
67890;DHT22;54685;52.082;5.426;2022-08-21T15:48:39;23.80;63.60
67890;DHT22;54685;52.082;5.426;2022-08-21T15:51:06;23.80;64.80
67890;DHT22;54685;52.082;5.426;2022-08-21T15:53:33;23.70;63.30
67890;DHT22;54685;52.082;5.426;2022-08-21T15:56:19;23.80;63.00
67890;DHT22;54685;52.082;5.426;2022-08-21T15:58:46;23.80;65.70
67890;DHT22;54685;52.082;5.426;2022-08-21T16:01:14;23.80;66.90
67890;DHT22;54685;52.082;5.426;2022-08-21T16:03:47;23.80;65.50
67890;DHT22;54685;52.082;5.426;2022-08-21T16:06:14;23.80;69.10
67890;DHT22;54685;52.082;5.426;2022-08-21T16:08:41;23.80;69.30
67890;DHT22;54685;52.082;5.426;2022-08-21T16:11:09;23.70;66.80
67890;DHT22;54685;52.082;5.426;2022-08-21T16:13:39;23.70;67.50
67890;DHT22;54685;52.082;5.426;2022-08-21T16:16:21;23.50;66.30
67890;DHT22;54685;52.082;5.426;2022-08-21T16:18:49;23.50;68.20
67890;DHT22;54685;52.082;5.426;2022-08-21T16:21:18;23.40;68.00
67890;DHT22;54685;52.082;5.426;2022-08-21T16:23:45;23.40;68.60
67890;DHT22;54685;52.082;5.426;2022-08-21T16:26:13;23.30;69.20
67890;DHT22;54685;52.082;5.426;2022-08-21T16:28:44;23.30;68.50
67890;DHT22;54685;52.082;5.426;2022-08-21T16:31:13;23.30;68.90
67890;DHT22;54685;52.082;5.426;2022-08-21T16:33:43;23.20;68.70
67890;DHT22;54685;52.082;5.426;2022-08-21T16:36:12;23.20;69.90
67890;DHT22;54685;52.082;5.426;2022-08-21T16:38:39;23.20;71.90
67890;DHT22;54685;52.082;5.426;2022-08-21T16:41:13;23.20;71.70
67890;DHT22;54685;52.082;5.426;2022-08-21T16:43:41;23.20;69.20
67890;DHT22;54685;52.082;5.426;2022-08-21T16:46:10;23.20;73.00
67890;DHT22;54685;52.082;5.426;2022-08-21T16:48:38;23.20;81.50
67890;DHT22;54685;52.082;5.426;2022-08-21T16:51:05;23.10;84.10
67890;DHT22;54685;52.082;5.426;2022-08-21T16:53:32;23.00;88.50